Time;durP1;ratioP1;P1;durP2;ratioP2;P2;SDS_P1;SDS_P2;PMS_P1;PMS_P2;Temp;Humidity;BMP_temperature;BMP_pressure;BME280_temperature;BME280_humidity;BME280_pressure;Samples;Min_cycle;Max_cycle;Signal;HPM_P1;HPM_P2
2022/03/26 00:00:55;;;;;;;78.80;33.40;;;;;;;;;;5074849;28;20186;-80
2022/03/26 00:03:21;;;;;;;72.20;31.37;;;;;;;;;;5093895;28;20645;-81
2022/03/26 00:05:46;;;;;;;67.50;30.37;;;5.30;99.90;;;;;;5093380;28;20650;-81
2022/03/26 00:08:13;;;;;;;73.87;30.70;;;5.30;99.90;;;;;;5093856;28;20221;-81
2022/03/26 00:10:39;;;;;;;67.93;30.20;;;5.30;99.90;;;;;;5058654;28;20186;-84
2022/03/26 00:13:05;;;;;;;71.90;30.63;;;5.40;99.90;;;;;;5093682;28;20190;-81
2022/03/26 00:15:31;;;;;;;72.73;27.93;;;;;;;;;;5093472;28;20210;-81
2022/03/26 00:17:56;;;;;;;61.10;28.07;;;5.30;99.90;;;;;;5075251;28;20590;-81
2022/03/26 00:20:22;;;;;;;68.37;31.30;;;5.30;99.90;;;;;;5093481;28;20178;-81
2022/03/26 00:22:48;;;;;;;67.50;29.47;;;5.20;99.90;;;;;;5074956;28;20182;-81
2022/03/26 00:25:15;;;;;;;67.07;29.90;;;5.20;99.90;;;;;;5093240;28;20600;-81
2022/03/26 00:27:41;;;;;;;62.27;29.23;;;5.20;99.90;;;;;;5093032;28;20178;-83
2022/03/26 00:30:08;;;;;;;70.50;30.23;;;5.10;99.90;;;;;;5058626;28;20294;-81
2022/03/26 00:32:34;;;;;;;70.33;30.10;;;5.10;99.90;;;;;;5093414;28;20264;-80
2022/03/26 00:35:00;;;;;;;63.47;30.07;;;5.10;99.90;;;;;;5093184;28;20325;-81
2022/03/26 00:37:26;;;;;;;65.97;29.93;;;5.10;99.90;;;;;;5074893;28;20620;-81
2022/03/26 00:39:53;;;;;;;65.03;30.57;;;5.10;99.90;;;;;;5074911;28;20205;-81
2022/03/26 00:42:19;;;;;;;62.43;29.77;;;5.10;99.90;;;;;;5093349;28;20197;-81
2022/03/26 00:44:46;;;;;;;62.40;29.97;;;;;;;;;;5074948;28;20626;-81
2022/03/26 00:47:12;;;;;;;66.63;28.67;;;5.00;99.90;;;;;;5093102;28;20181;-81
2022/03/26 00:49:37;;;;;;;68.83;30.80;;;5.00;99.90;;;;;;5093156;28;20276;-80
2022/03/26 00:52:04;;;;;;;64.63;28.90;;;4.90;99.90;;;;;;5075204;28;20264;-81
2022/03/26 00:54:30;;;;;;;68.07;29.67;;;4.90;99.90;;;;;;5093349;28;20182;-81
2022/03/26 00:56:57;;;;;;;63.13;30.63;;;5.00;99.90;;;;;;5093546;28;20231;-81
2022/03/26 00:59:23;;;;;;;62.33;28.47;;;4.90;99.90;;;;;;5093334;28;20261;-81
2022/03/26 01:01:49;;;;;;;61.37;29.70;;;4.90;99.90;;;;;;5093054;28;20205;-81
2022/03/26 01:04:14;;;;;;;63.63;28.97;;;4.90;99.90;;;;;;5058450;28;20182;-80
2022/03/26 01:06:40;;;;;;;65.50;29.00;;;4.90;99.90;;;;;;5058503;28;20630;-80
2022/03/26 01:09:07;;;;;;;57.93;27.63;;;4.80;99.90;;;;;;5092760;28;20190;-80
2022/03/26 01:11:34;;;;;;;57.73;27.07;;;;;;;;;;5092852;28;20174;-81
2022/03/26 01:14:00;;;;;;;56.20;26.60;;;;;;;;;;5096547;28;20269;-81
2022/03/26 01:16:27;;;;;;;52.93;25.03;;;4.90;99.90;;;;;;5079247;28;20289;-81
2022/03/26 01:18:53;;;;;;;58.27;26.57;;;4.90;99.90;;;;;;5097655;28;20178;-81
2022/03/26 01:21:19;;;;;;;62.77;27.57;;;5.50;99.90;;;;;;5079417;28;20533;-80
2022/03/26 01:23:46;;;;;;;57.23;26.10;;;5.00;99.90;;;;;;5097715;28;20185;-81
2022/03/26 01:26:13;;;;;;;53.57;25.30;;;5.00;99.90;;;;;;5098346;28;20185;-80
2022/03/26 01:28:39;;;;;;;61.43;25.70;;;5.00;99.90;;;;;;5079592;28;20615;-80
2022/03/26 01:31:05;;;;;;;53.00;25.47;;;5.00;99.90;;;;;;5097066;28;20175;-81
2022/03/26 01:33:31;;;;;;;56.50;24.90;;;5.40;99.90;;;;;;5079121;28;20186;-80
2022/03/26 01:35:56;;;;;;;48.37;23.73;;;5.10;99.90;;;;;;5097072;28;20233;-81
2022/03/26 01:38:22;;;;;;;52.53;24.47;;;5.10;99.90;;;;;;5097638;28;20282;-81
2022/03/26 01:40:48;;;;;;;54.60;25.67;;;5.10;99.90;;;;;;5081532;28;20193;-81
2022/03/26 01:43:14;;;;;;;50.73;23.97;;;5.10;99.90;;;;;;5093147;28;20182;-81
2022/03/26 01:45:40;;;;;;;50.10;24.50;;;;;;;;;;5119548;28;20183;-81
2022/03/26 01:48:06;;;;;;;55.90;25.30;;;5.10;99.90;;;;;;5120210;28;20198;-81
2022/03/26 01:50:32;;;;;;;55.53;24.53;;;;;;;;;;5120353;28;20190;-81
2022/03/26 01:52:59;;;;;;;48.17;23.80;;;5.10;99.90;;;;;;5105236;28;20244;-80
2022/03/26 01:55:27;;;;;;;54.90;24.23;;;5.10;99.90;;;;;;5103525;28;20193;-80
2022/03/26 01:57:54;;;;;;;56.70;24.57;;;5.10;99.90;;;;;;5105177;28;20181;-84
2022/03/26 02:00:20;;;;;;;59.80;24.37;;;5.10;99.90;;;;;;5106618;28;20197;-80
2022/03/26 02:02:46;;;;;;;49.53;23.77;;;5.20;99.90;;;;;;5108101;28;20638;-81
2022/03/26 02:05:13;;;;;;;50.47;23.30;;;5.20;99.90;;;;;;5107275;28;20182;-80
2022/03/26 02:07:44;;;;;;;51.93;23.60;;;5.20;99.90;;;;;;5103451;28;20178;-81
2022/03/26 02:10:12;;;;;;;47.00;23.27;;;5.80;99.90;;;;;;5095874;28;20202;-80
2022/03/26 02:12:38;;;;;;;52.53;24.00;;;5.20;99.90;;;;;;5096653;28;20178;-80
2022/03/26 02:15:04;;;;;;;53.80;23.33;;;5.20;99.90;;;;;;5096049;28;20182;-81
2022/03/26 02:17:31;;;;;;;52.60;24.50;;;;;;;;;;5096264;28;20257;-81
2022/03/26 02:19:58;;;;;;;52.93;23.67;;;5.30;99.90;;;;;;5095983;28;20230;-81
2022/03/26 02:22:25;;;;;;;49.03;22.33;;;6.00;99.90;;;;;;5096258;28;20186;-80
2022/03/26 02:24:52;;;;;;;47.70;22.63;;;;;;;;;;5095624;28;20182;-80
2022/03/26 02:27:18;;;;;;;51.43;23.20;;;5.30;99.90;;;;;;5095656;28;20208;-80
2022/03/26 02:29:44;;;;;;;47.97;24.07;;;5.40;99.90;;;;;;5095733;28;20209;-81
2022/03/26 02:32:09;;;;;;;57.77;23.90;;;5.30;99.90;;;;;;5095359;28;20287;-81
2022/03/26 02:34:35;;;;;;;53.30;23.27;;;5.30;99.90;;;;;;5095382;28;20324;-81
2022/03/26 02:37:01;;;;;;;55.13;21.60;;;5.30;99.90;;;;;;5060231;28;20338;-81
2022/03/26 02:39:27;;;;;;;50.90;22.73;;;5.30;99.90;;;;;;5095512;28;20179;-81
2022/03/26 02:41:53;;;;;;;47.73;22.03;;;5.10;99.90;;;;;;5077197;28;20556;-81
2022/03/26 02:44:19;;;;;;;52.60;23.17;;;5.30;99.90;;;;;;5095061;28;20261;-80
2022/03/26 02:46:45;;;;;;;51.77;22.40;;;5.20;99.90;;;;;;5095144;28;20549;-81
2022/03/26 02:49:15;;;;;;;55.10;22.73;;;5.30;99.90;;;;;;5076789;28;20185;-81
2022/03/26 02:51:42;;;;;;;45.00;21.70;;;5.20;99.90;;;;;;5095078;28;20630;-81
2022/03/26 02:54:18;;;;;;;51.47;22.80;;;5.20;99.90;;;;;;5094942;28;20184;-81
2022/03/26 02:56:56;;;;;;;54.03;22.67;;;5.90;99.90;;;;;;5077096;28;20244;-81
2022/03/26 02:59:23;;;;;;;45.90;21.60;;;5.10;99.90;;;;;;5076512;28;20652;-80
2022/03/26 03:01:49;;;;;;;46.83;22.93;;;;;;;;;;5094901;28;20178;-81
2022/03/26 03:04:16;;;;;;;43.73;19.90;;;5.10;99.90;;;;;;5094683;28;20213;-81
2022/03/26 03:06:42;;;;;;;51.63;22.13;;;5.10;99.90;;;;;;5094958;28;20224;-80
2022/03/26 03:09:08;;;;;;;50.33;22.03;;;5.10;99.90;;;;;;5076326;28;20182;-81
2022/03/26 03:11:35;;;;;;;47.33;21.73;;;5.10;99.90;;;;;;5094801;28;20190;-80
2022/03/26 03:14:02;;;;;;;43.30;21.50;;;5.10;99.90;;;;;;5094860;28;20238;-81
2022/03/26 03:16:27;;;;;;;58.13;23.40;;;5.10;99.90;;;;;;5094445;28;20209;-81
2022/03/26 03:18:53;;;;;;;43.90;21.27;;;5.00;99.90;;;;;;5094458;28;20178;-80
2022/03/26 03:21:19;;;;;;;44.17;22.07;;;5.00;99.90;;;;;;5094401;28;20673;-81
2022/03/26 03:23:44;;;;;;;51.30;21.37;;;5.80;99.90;;;;;;5076376;28;20187;-81
2022/03/26 03:26:11;;;;;;;47.53;21.13;;;5.00;99.90;;;;;;5075902;28;20248;-81
2022/03/26 03:28:38;;;;;;;50.40;22.07;;;;;;;;;;5086821;28;20175;-81
2022/03/26 03:31:03;;;;;;;53.47;21.43;;;5.00;99.90;;;;;;5074094;28;20245;-87
2022/03/26 03:33:29;;;;;;;57.23;22.83;;;5.00;99.90;;;;;;5073770;28;20625;-81
2022/03/26 03:35:55;;;;;;;44.80;21.70;;;5.00;99.90;;;;;;5073219;28;20233;-81
2022/03/26 03:38:21;;;;;;;54.17;21.60;;;5.00;99.90;;;;;;5055948;28;20617;-81
2022/03/26 03:40:46;;;;;;;53.77;22.00;;;5.00;99.90;;;;;;5074148;28;20677;-81
2022/03/26 03:43:12;;;;;;;47.30;22.03;;;5.00;99.90;;;;;;5073506;28;20178;-81
2022/03/26 03:45:37;;;;;;;41.83;20.83;;;5.00;99.90;;;;;;5078857;28;20186;-81
2022/03/26 03:48:03;;;;;;;50.70;20.27;;;5.00;99.90;;;;;;5073660;28;20194;-81
2022/03/26 03:50:29;;;;;;;47.13;21.33;;;4.90;99.90;;;;;;5073439;28;20236;-81
2022/03/26 03:52:55;;;;;;;50.80;21.97;;;4.90;99.90;;;;;;5081510;28;20190;-82
2022/03/26 03:55:21;;;;;;;44.57;21.60;;;;;;;;;;5081137;28;20633;-81
2022/03/26 03:57:46;;;;;;;50.77;21.67;;;4.90;99.90;;;;;;5089773;28;20189;-81
2022/03/26 04:00:14;;;;;;;45.73;21.40;;;4.90;99.90;;;;;;5054503;28;20185;-81
2022/03/26 04:02:41;;;;;;;40.90;20.70;;;4.90;99.90;;;;;;5066010;28;20178;-80
2022/03/26 04:05:10;;;;;;;58.50;21.80;;;4.90;99.90;;;;;;5083077;28;20180;-81
2022/03/26 04:07:37;;;;;;;48.53;22.33;;;4.90;99.90;;;;;;5081467;28;20185;-80
2022/03/26 04:10:05;;;;;;;49.87;19.67;;;4.90;99.90;;;;;;5082046;28;20240;-80
2022/03/26 04:12:31;;;;;;;46.40;20.67;;;;;;;;;;5080791;28;20178;-81
2022/03/26 04:14:56;;;;;;;51.50;21.33;;;5.00;99.90;;;;;;5078944;28;20228;-81
2022/03/26 04:17:22;;;;;;;50.20;21.90;;;;;;;;;;5064471;28;20245;-80
2022/03/26 04:19:48;;;;;;;42.20;20.30;;;5.00;99.90;;;;;;5083904;28;20182;-81
2022/03/26 04:22:14;;;;;;;55.90;24.63;;;5.00;99.90;;;;;;5079985;28;20186;-81
2022/03/26 04:24:40;;;;;;;48.47;21.90;;;;;;;;;;5065330;28;20670;-82
2022/03/26 04:27:06;;;;;;;53.07;22.90;;;5.00;99.90;;;;;;5081397;28;20186;-81
2022/03/26 04:29:32;;;;;;;53.97;21.50;;;5.10;99.90;;;;;;5071589;28;20213;-81
2022/03/26 04:31:58;;;;;;;49.33;23.27;;;5.00;99.90;;;;;;5075434;28;20193;-81
2022/03/26 04:34:24;;;;;;;57.20;27.57;;;5.10;99.90;;;;;;5092953;28;20258;-81
2022/03/26 04:36:50;;;;;;;73.73;37.67;;;5.20;99.90;;;;;;5075731;28;20229;-81
2022/03/26 04:39:16;;;;;;;57.50;30.17;;;3.70;99.90;;;;;;5093176;28;20225;-81
2022/03/26 04:41:41;;;;;;;50.60;22.13;;;5.10;99.90;;;;;;5093132;28;20231;-81
2022/03/26 04:44:07;;;;;;;55.13;21.63;;;5.00;99.90;;;;;;5075269;28;20634;-81
2022/03/26 04:46:34;;;;;;;47.43;21.73;;;5.00;99.90;;;;;;5093158;28;21002;-81
2022/03/26 04:49:00;;;;;;;50.10;18.90;;;4.90;99.90;;;;;;5075328;28;20274;-80
2022/03/26 04:51:26;;;;;;;47.63;21.67;;;;;;;;;;5092921;28;20265;-81
2022/03/26 04:53:51;;;;;;;45.90;20.30;;;4.90;99.90;;;;;;5093018;28;20198;-80
2022/03/26 04:56:17;;;;;;;45.03;20.93;;;4.90;99.90;;;;;;5092723;28;20662;-82
2022/03/26 04:58:43;;;;;;;48.83;21.87;;;4.90;99.90;;;;;;5093130;28;20242;-81
2022/03/26 05:01:08;;;;;;;46.73;21.17;;;5.00;99.90;;;;;;5075203;28;20179;-81
2022/03/26 05:03:34;;;;;;;48.63;20.27;;;5.10;99.90;;;;;;5092707;28;20202;-80
2022/03/26 05:05:59;;;;;;;45.23;21.03;;;5.10;99.90;;;;;;5093127;28;20212;-81
2022/03/26 05:08:25;;;;;;;51.30;21.23;;;5.10;99.90;;;;;;5074604;28;20658;-81
2022/03/26 05:10:51;;;;;;;50.00;22.97;;;;;;;;;;5092962;28;20184;-81
2022/03/26 05:13:17;;;;;;;45.77;20.90;;;5.20;99.90;;;;;;5093006;28;20231;-82
2022/03/26 05:15:43;;;;;;;47.53;20.03;;;5.20;99.90;;;;;;5093022;28;20221;-81
2022/03/26 05:18:09;;;;;;;47.83;20.50;;;5.30;99.90;;;;;;5074884;28;20196;-81
2022/03/26 05:20:35;;;;;;;47.73;21.27;;;;;;;;;;5092710;28;20191;-81
2022/03/26 05:23:02;;;;;;;44.47;19.97;;;5.50;99.90;;;;;;5075007;28;20273;-81
2022/03/26 05:25:28;;;;;;;43.13;20.27;;;5.70;99.90;;;;;;5092785;28;20174;-81
2022/03/26 05:27:54;;;;;;;50.60;22.87;;;5.70;99.90;;;;;;5093302;28;20203;-81
2022/03/26 05:30:22;;;;;;;43.90;20.23;;;5.80;99.90;;;;;;5092705;28;20202;-82
2022/03/26 05:32:48;;;;;;;48.90;19.73;;;5.80;99.90;;;;;;5093029;28;20224;-81
2022/03/26 05:35:14;;;;;;;44.40;19.90;;;;;;;;;;5092604;28;20325;-81
2022/03/26 05:37:49;;;;;;;43.20;20.37;;;5.40;99.90;;;;;;5092539;28;20243;-81
2022/03/26 05:40:17;;;;;;;49.40;21.40;;;6.10;99.90;;;;;;5092803;28;20285;-82
2022/03/26 05:42:47;;;;;;;41.50;20.10;;;6.10;99.90;;;;;;5074432;28;20210;-82
2022/03/26 05:45:13;;;;;;;43.23;17.80;;;6.20;99.90;;;;;;5092722;28;20179;-81
2022/03/26 05:47:39;;;;;;;40.13;19.17;;;6.20;99.90;;;;;;5092674;28;20173;-81
2022/03/26 05:50:07;;;;;;;41.07;20.67;;;6.40;99.90;;;;;;5093156;28;20631;-81
2022/03/26 05:52:33;;;;;;;50.93;20.03;;;;;;;;;;5092928;28;20179;-80
2022/03/26 05:54:59;;;;;;;36.70;16.20;;;6.60;99.90;;;;;;5093471;28;20186;-81
2022/03/26 05:57:25;;;;;;;42.87;19.47;;;6.80;99.90;;;;;;5092683;28;20203;-82
2022/03/26 05:59:50;;;;;;;50.43;20.77;;;6.90;99.90;;;;;;5076344;28;20190;-81
2022/03/26 06:02:16;;;;;;;37.10;16.27;;;7.10;99.90;;;;;;5078186;28;20248;-81
2022/03/26 06:04:45;;;;;;;43.40;17.80;;;7.20;99.90;;;;;;5095911;28;20189;-81
2022/03/26 06:07:11;;;;;;;41.43;18.43;;;7.20;99.90;;;;;;5077884;28;20269;-81
2022/03/26 06:09:37;;;;;;;41.23;18.20;;;;;;;;;;5096089;28;20274;-82
2022/03/26 06:12:05;;;;;;;35.33;16.97;;;7.40;99.90;;;;;;5096304;28;20174;-83
2022/03/26 06:14:31;;;;;;;33.37;15.73;;;7.60;99.90;;;;;;5095561;28;20288;-82
2022/03/26 06:16:56;;;;;;;36.23;16.50;;;7.70;99.90;;;;;;5067485;28;20218;-83
2022/03/26 06:19:23;;;;;;;33.17;16.50;;;7.80;99.90;;;;;;5073105;28;20213;-82
2022/03/26 06:21:49;;;;;;;35.20;14.80;;;7.90;99.90;;;;;;5081019;28;20201;-80
2022/03/26 06:24:14;;;;;;;38.70;15.77;;;8.10;99.90;;;;;;5069498;28;20239;-82
2022/03/26 06:26:43;;;;;;;35.10;17.03;;;8.20;99.90;;;;;;5062246;28;20548;-82
2022/03/26 06:29:09;;;;;;;28.10;14.63;;;8.30;99.90;;;;;;5083554;28;20178;-82
2022/03/26 06:31:35;;;;;;;34.07;16.40;;;8.50;99.90;;;;;;5059122;28;20186;-82
2022/03/26 06:34:01;;;;;;;30.57;15.90;;;8.60;99.90;;;;;;5062595;28;20529;-83
2022/03/26 06:36:27;;;;;;;41.17;16.20;;;8.70;99.90;;;;;;5093341;28;20261;-84
2022/03/26 06:38:53;;;;;;;33.60;15.73;;;8.70;99.90;;;;;;5099968;28;20186;-83
2022/03/26 06:41:19;;;;;;;35.00;16.13;;;8.80;99.90;;;;;;5088198;28;20182;-83
2022/03/26 06:43:45;;;;;;;39.77;13.87;;;8.90;99.90;;;;;;5100338;28;20194;-81
2022/03/26 06:46:11;;;;;;;44.10;14.77;;;8.90;99.90;;;;;;5096432;28;20206;-81
2022/03/26 06:48:37;;;;;;;33.43;15.63;;;9.00;99.90;;;;;;5099448;28;20240;-82
2022/03/26 06:51:04;;;;;;;30.63;14.77;;;9.10;99.90;;;;;;5099353;28;20193;-83
2022/03/26 06:53:31;;;;;;;31.17;14.63;;;9.30;99.90;;;;;;5103698;28;20212;-82
2022/03/26 06:55:57;;;;;;;35.77;16.23;;;9.30;99.90;;;;;;5107893;27;20684;-82
2022/03/26 06:58:24;;;;;;;36.87;14.50;;;9.50;99.90;;;;;;5106344;27;20661;-80
2022/03/26 07:00:50;;;;;;;39.40;15.17;;;9.60;99.90;;;;;;5126794;27;20738;-84
2022/03/26 07:03:16;;;;;;;31.77;16.20;;;;;;;;;;5107648;28;20205;-83
2022/03/26 07:05:42;;;;;;;46.07;16.80;;;9.70;99.90;;;;;;5108747;28;20186;-81
2022/03/26 07:08:09;;;;;;;36.80;16.40;;;9.80;99.90;;;;;;5100998;28;20182;-82
2022/03/26 07:10:36;;;;;;;67.63;20.17;;;10.00;99.90;;;;;;5115219;28;20192;-81
2022/03/26 07:13:03;;;;;;;35.10;17.37;;;10.00;99.90;;;;;;5105541;27;20268;-82
2022/03/26 07:15:31;;;;;;;48.40;17.37;;;10.10;99.90;;;;;;5135111;27;20192;-83
2022/03/26 07:17:57;;;;;;;36.67;17.20;;;10.20;99.90;;;;;;5118342;27;20216;-82
2022/03/26 07:20:23;;;;;;;51.77;16.37;;;10.30;99.90;;;;;;5124198;27;20667;-82
2022/03/26 07:22:49;;;;;;;37.43;15.77;;;10.40;99.90;;;;;;5115519;28;20260;-81
2022/03/26 07:25:14;;;;;;;42.43;18.20;;;10.40;99.90;;;;;;5121172;27;20169;-80
2022/03/26 07:27:40;;;;;;;46.70;17.20;;;10.50;99.90;;;;;;5104447;27;20305;-80
2022/03/26 07:30:07;;;;;;;42.17;15.67;;;10.60;99.90;;;;;;5128650;27;20186;-80
2022/03/26 07:32:32;;;;;;;49.80;16.90;;;10.70;99.90;;;;;;5117350;28;20191;-81
2022/03/26 07:34:58;;;;;;;46.17;17.13;;;10.70;99.90;;;;;;5110455;28;20233;-81
2022/03/26 07:37:24;;;;;;;41.50;16.87;;;10.80;99.90;;;;;;5120306;28;21089;-81
2022/03/26 07:39:50;;;;;;;29.93;12.27;;;10.90;99.90;;;;;;5117707;27;20213;-84
2022/03/26 07:42:16;;;;;;;41.35;16.77;;;11.10;99.90;;;;;;5123668;28;20234;-83
2022/03/26 07:44:42;;;;;;;45.77;20.23;;;11.10;99.90;;;;;;5126893;28;20190;-85
2022/03/26 07:47:08;;;;;;;48.53;16.57;;;11.20;99.90;;;;;;5134877;28;20234;-86
2022/03/26 07:49:34;;;;;;;45.30;18.50;;;11.30;99.90;;;;;;5099273;28;20235;-89
2022/03/26 07:52:00;;;;;;;37.47;14.70;;;11.30;99.90;;;;;;5128018;28;20169;-89
2022/03/26 07:54:27;;;;;;;38.30;16.05;;;11.40;99.90;;;;;;5123207;28;20194;-86
2022/03/26 07:56:52;;;;;;;33.28;15.80;;;11.50;99.90;;;;;;5122155;28;20227;-89
2022/03/26 07:59:18;;;;;;;37.35;17.48;;;11.70;99.90;;;;;;5113500;28;20189;-86
2022/03/26 08:01:44;;;;;;;40.15;15.93;;;11.80;99.90;;;;;;5111619;28;20194;-89
2022/03/26 08:04:10;;;;;;;42.40;16.15;;;11.80;99.90;;;;;;5110445;28;20575;-85
2022/03/26 08:06:36;;;;;;;36.13;14.68;;;11.90;99.90;;;;;;5113995;28;20216;-89
2022/03/26 08:09:02;;;;;;;39.25;15.23;;;12.00;99.90;;;;;;5111569;28;20203;-88
2022/03/26 08:11:28;;;;;;;37.65;16.75;;;12.00;99.90;;;;;;5098810;28;20235;-87
2022/03/26 08:13:53;;;;;;;36.05;14.88;;;12.10;99.90;;;;;;5098928;28;20206;-82
2022/03/26 08:16:19;;;;;;;34.53;11.55;;;12.20;99.90;;;;;;5100189;28;20297;-82
2022/03/26 08:18:45;;;;;;;32.00;14.27;;;12.40;99.90;;;;;;5078694;28;20193;-88
2022/03/26 08:21:11;;;;;;;30.50;14.15;;;12.40;99.90;;;;;;5100889;28;20186;-83
2022/03/26 08:23:37;;;;;;;36.78;14.15;;;12.50;99.90;;;;;;5103709;27;20206;-84
2022/03/26 08:28:51;;;;;;;29.35;13.23;;;12.60;99.90;;;;;;5104585;27;20206;-83
2022/03/26 08:31:18;;;;;;;34.72;12.95;;;12.70;99.90;;;;;;5106732;27;20288;-82
2022/03/26 08:33:44;;;;;;;34.90;12.25;;;12.80;99.90;;;;;;5101684;28;20181;-82
2022/03/26 08:36:11;;;;;;;27.77;12.70;;;12.90;99.90;;;;;;5076872;28;21125;-83
2022/03/26 08:38:37;;;;;;;43.55;14.25;;;12.90;99.90;;;;;;5061276;28;20175;-83
2022/03/26 08:41:04;;;;;;;33.90;13.18;;;12.90;99.90;;;;;;5072552;28;20179;-82
2022/03/26 08:43:30;;;;;;;36.15;13.68;;;13.00;99.90;;;;;;5060355;28;20179;-82
2022/03/26 08:45:56;;;;;;;46.30;16.05;;;13.00;99.90;;;;;;5082079;28;20187;-81
2022/03/26 08:48:22;;;;;;;39.42;14.13;;;13.00;99.90;;;;;;5061587;28;20178;-81
2022/03/26 08:50:48;;;;;;;39.40;15.20;;;13.10;99.90;;;;;;5084332;28;20175;-81
2022/03/26 08:53:14;;;;;;;42.13;16.38;;;13.20;99.90;;;;;;5093349;28;20182;-81
2022/03/26 08:55:40;;;;;;;48.72;14.95;;;13.10;99.40;;;;;;5092973;28;20178;-83
2022/03/26 08:58:07;;;;;;;41.55;14.57;;;13.00;99.10;;;;;;5075134;28;20167;-82
2022/03/26 09:00:34;;;;;;;29.33;14.02;;;13.00;99.00;;;;;;5093215;28;20260;-81
2022/03/26 09:03:00;;;;;;;28.15;13.60;;;13.10;99.50;;;;;;5093245;28;20174;-81
2022/03/26 09:05:26;;;;;;;28.10;12.95;;;13.20;99.60;;;;;;5093425;28;20210;-81
2022/03/26 09:07:52;;;;;;;54.53;14.52;;;13.40;98.30;;;;;;5075411;28;20216;-81
2022/03/26 09:10:17;;;;;;;31.98;12.45;;;13.60;96.40;;;;;;5094104;28;20303;-82
2022/03/26 09:12:43;;;;;;;41.08;11.70;;;13.60;95.60;;;;;;5092788;28;20507;-82
2022/03/26 09:15:09;;;;;;;30.50;12.77;;;13.50;95.30;;;;;;5075148;28;20546;-81
2022/03/26 09:17:35;;;;;;;26.42;10.63;;;13.60;95.30;;;;;;5092810;28;20720;-82
2022/03/26 09:20:02;;;;;;;30.52;12.20;;;13.60;95.60;;;;;;5092621;28;20174;-81
2022/03/26 09:22:28;;;;;;;31.52;13.73;;;13.60;95.80;;;;;;5093239;28;20174;-82
2022/03/26 09:24:54;;;;;;;33.30;11.23;;;;;;;;;;5092728;28;20598;-82
2022/03/26 09:27:19;;;;;;;29.55;10.73;;;13.80;94.10;;;;;;5093153;28;20183;-82
2022/03/26 09:29:45;;;;;;;38.97;10.90;;;13.90;93.60;;;;;;5074598;28;20182;-82
2022/03/26 09:32:11;;;;;;;24.67;11.15;;;13.90;93.50;;;;;;5074682;28;20643;-82
2022/03/26 09:34:37;;;;;;;26.27;10.93;;;13.90;94.00;;;;;;5091172;28;20313;-83
2022/03/26 09:37:03;;;;;;;26.95;11.27;;;14.00;93.70;;;;;;5068823;28;20294;-82
2022/03/26 09:39:29;;;;;;;24.58;10.68;;;14.20;93.40;;;;;;5058580;28;20520;-85
2022/03/26 09:41:57;;;;;;;27.58;10.02;;;14.20;92.50;;;;;;5057089;28;20305;-82
2022/03/26 09:44:23;;;;;;;29.75;9.20;;;14.20;92.50;;;;;;5074769;28;20179;-83
2022/03/26 09:46:49;;;;;;;31.95;9.13;;;14.30;90.90;;;;;;5074754;28;20172;-82
2022/03/26 09:49:15;;;;;;;26.95;8.88;;;14.20;91.30;;;;;;5076209;28;20184;-82
2022/03/26 09:51:41;;;;;;;21.58;7.57;;;14.00;91.60;;;;;;5076073;28;20249;-83
2022/03/26 09:54:08;;;;;;;24.08;9.95;;;14.10;91.90;;;;;;5057653;28;20244;-84
2022/03/26 09:56:34;;;;;;;25.60;9.27;;;14.20;91.50;;;;;;5058160;28;20217;-82
2022/03/26 09:59:00;;;;;;;20.55;8.70;;;14.20;90.70;;;;;;5078491;28;20183;-83
2022/03/26 10:01:26;;;;;;;25.02;9.98;;;14.40;90.90;;;;;;5086117;28;20656;-83
2022/03/26 10:04:12;;;;;;;21.85;9.05;;;14.50;90.60;;;;;;5057610;28;20233;-82
2022/03/26 10:06:49;;;;;;;38.65;8.43;;;14.60;90.00;;;;;;5076017;28;20175;-82
2022/03/26 10:09:36;;;;;;;25.35;8.15;;;14.40;89.70;;;;;;5075782;28;20268;-82
2022/03/26 10:12:07;;;;;;;30.42;8.25;;;14.40;90.10;;;;;;5076081;28;20171;-82
2022/03/26 10:14:50;;;;;;;17.70;7.03;;;14.40;88.80;;;;;;5074594;28;20170;-82
2022/03/26 10:17:17;;;;;;;22.83;7.75;;;14.30;90.00;;;;;;5077673;28;20210;-83
2022/03/26 10:19:55;;;;;;;19.35;8.32;;;14.20;90.60;;;;;;5095697;28;20182;-82
2022/03/26 10:22:29;;;;;;;29.25;8.85;;;14.20;90.80;;;;;;5095835;28;20171;-82
2022/03/26 10:25:01;;;;;;;14.80;5.82;;;14.30;90.50;;;;;;5091811;28;20648;-84
2022/03/26 10:27:27;;;;;;;20.60;7.35;;;14.40;90.00;;;;;;5080042;28;20271;-83
2022/03/26 10:29:59;;;;;;;24.85;7.50;;;14.40;90.00;;;;;;5041353;28;20274;-83
2022/03/26 10:32:39;;;;;;;22.80;8.68;;;14.50;90.30;;;;;;5067132;28;20658;-81
2022/03/26 10:35:26;;;;;;;18.95;7.22;;;14.30;90.50;;;;;;5083252;28;20248;-82
2022/03/26 10:37:56;;;;;;;19.80;7.97;;;14.20;91.00;;;;;;5087102;28;20186;-83
2022/03/26 10:40:23;;;;;;;28.38;7.97;;;14.00;91.50;;;;;;5102023;28;20178;-82
2022/03/26 10:42:54;;;;;;;22.50;7.63;;;14.00;91.60;;;;;;5104580;28;20185;-82
2022/03/26 10:45:20;;;;;;;14.68;6.47;;;13.90;91.60;;;;;;5105643;28;20178;-82
2022/03/26 10:47:48;;;;;;;12.05;7.30;;;13.90;91.80;;;;;;5110210;28;20192;-82
2022/03/26 10:50:14;;;;;;;22.60;8.63;;;13.90;92.40;;;;;;5103812;28;20166;-83
2022/03/26 10:52:40;;;;;;;12.38;6.88;;;13.80;92.10;;;;;;5094729;28;20269;-83
2022/03/26 10:55:17;;;;;;;10.82;5.80;;;13.80;91.70;;;;;;5093982;28;20202;-84
2022/03/26 10:57:47;;;;;;;18.33;6.78;;;13.70;91.70;;;;;;5096723;28;20600;-81
2022/03/26 11:00:17;;;;;;;18.85;6.63;;;13.70;92.10;;;;;;5109300;28;20253;-82
2022/03/26 11:02:44;;;;;;;19.10;6.22;;;13.70;92.20;;;;;;5104109;28;20185;-82
2022/03/26 11:05:13;;;;;;;14.98;6.47;;;13.70;92.20;;;;;;5112578;28;20174;-82
2022/03/26 11:07:43;;;;;;;14.65;5.90;;;13.70;92.40;;;;;;5110561;28;20603;-81
2022/03/26 11:10:11;;;;;;;29.52;7.32;;;13.70;92.10;;;;;;5109636;28;20172;-83
2022/03/26 11:12:47;;;;;;;10.00;5.88;;;13.80;91.90;;;;;;5102596;28;20174;-83
2022/03/26 11:15:25;;;;;;;18.27;5.97;;;13.80;91.50;;;;;;5104523;28;20177;-81
2022/03/26 11:18:14;;;;;;;10.48;5.65;;;13.80;91.60;;;;;;5099764;28;20210;-81
2022/03/26 11:20:49;;;;;;;23.73;7.03;;;13.90;91.60;;;;;;5055564;28;20240;-82
2022/03/26 11:23:23;;;;;;;18.35;6.60;;;13.90;91.80;;;;;;5093411;28;20174;-82
2022/03/26 11:26:04;;;;;;;14.90;7.20;;;14.00;91.10;;;;;;5094835;28;20252;-82
2022/03/26 11:28:36;;;;;;;13.43;6.50;;;14.00;91.20;;;;;;5094507;28;20178;-84
2022/03/26 11:31:16;;;;;;;20.02;6.60;;;14.00;92.30;;;;;;5095551;28;20209;-82
2022/03/26 11:33:42;;;;;;;13.73;6.35;;;14.00;91.60;;;;;;5100451;28;20261;-83
2022/03/26 11:36:11;;;;;;;21.92;8.52;;;14.00;91.50;;;;;;5102228;28;20305;-83
2022/03/26 11:38:38;;;;;;;16.00;7.60;;;14.00;91.30;;;;;;5100276;28;20195;-82
2022/03/26 11:41:06;;;;;;;14.77;6.40;;;14.00;90.60;;;;;;5096599;28;20235;-83
2022/03/26 11:43:44;;;;;;;13.70;6.32;;;14.00;90.30;;;;;;5099561;28;20263;-83
2022/03/26 11:51:55;;;;;;;15.43;6.20;;;13.90;90.20;;;;;;5108345;28;20269;-83
2022/03/26 11:54:21;;;;;;;22.23;6.97;;;14.00;90.60;;;;;;5114441;28;20188;-83
2022/03/26 11:56:47;;;;;;;11.60;6.50;;;13.90;91.00;;;;;;5112315;28;20670;-81
2022/03/26 11:59:15;;;;;;;14.63;5.78;;;13.90;90.70;;;;;;5112660;28;20193;-81
2022/03/26 12:01:48;;;;;;;14.93;6.22;;;14.00;91.00;;;;;;5112874;28;20178;-82
2022/03/26 12:04:26;;;;;;;13.90;6.47;;;13.90;90.70;;;;;;5113120;28;20171;-82
2022/03/26 12:06:55;;;;;;;18.85;6.82;;;13.90;90.60;;;;;;5112598;28;20657;-82
2022/03/26 12:09:32;;;;;;;16.90;7.05;;;13.90;90.50;;;;;;5112293;28;20443;-83
2022/03/26 12:12:17;;;;;;;15.52;6.90;;;13.90;90.80;;;;;;5114032;28;20170;-83
2022/03/26 12:15:05;;;;;;;17.73;7.18;;;13.90;90.90;;;;;;5112345;28;20268;-83
2022/03/26 12:17:47;;;;;;;13.10;5.75;;;13.90;91.20;;;;;;5113845;28;20665;-84
2022/03/26 12:20:26;;;;;;;21.45;6.15;;;13.80;91.10;;;;;;5113383;28;20181;-83
2022/03/26 12:23:15;;;;;;;13.65;6.25;;;13.80;91.10;;;;;;5107778;28;20302;-83
2022/03/26 12:25:46;;;;;;;9.57;6.07;;;13.70;90.90;;;;;;5101526;28;20177;-82
2022/03/26 12:28:17;;;;;;;10.20;5.47;;;13.70;91.00;;;;;;5100984;28;20171;-85
2022/03/26 12:30:47;;;;;;;18.20;5.55;;;13.70;90.90;;;;;;5092707;28;20245;-82
2022/03/26 12:33:14;;;;;;;26.90;6.57;;;13.60;92.70;;;;;;5093106;28;20202;-82
2022/03/26 12:35:42;;;;;;;22.65;6.32;;;13.50;94.00;;;;;;5094142;28;20245;-83
2022/03/26 12:38:08;;;;;;;17.15;7.03;;;13.30;94.00;;;;;;5093138;28;20251;-82
2022/03/26 12:40:34;;;;;;;24.52;6.40;;;13.30;94.50;;;;;;5093236;28;20186;-82
2022/03/26 12:43:00;;;;;;;14.90;7.22;;;13.30;95.60;;;;;;5092404;28;20177;-81
2022/03/26 12:45:30;;;;;;;43.13;8.60;;;13.20;97.00;;;;;;5093801;28;20205;-82
2022/03/26 12:47:56;;;;;;;31.45;6.65;;;13.10;98.00;;;;;;5093866;28;20219;-82
2022/03/26 12:50:23;;;;;;;31.58;6.72;;;13.00;98.40;;;;;;5092214;28;20186;-83